sensor_id;sensor_type;location;lat;lon;timestamp;pressure;altitude;pressure_sealevel;temperature;humidity
45113;BME280;30873;53.908;27.576;2023-04-06T00:00:53;1019.1;;;7.5;100
45113;BME280;30873;53.908;27.576;2023-04-06T00:06:05;1019.1;;;7.6;100
45113;BME280;30873;53.908;27.576;2023-04-06T00:11:41;1019.1;;;7.6;100
45113;BME280;30873;53.908;27.576;2023-04-06T00:16:05;1019;;;7.7;100
45113;BME280;30873;53.908;27.576;2023-04-06T00:21:27;1019;;;7.7;100
45113;BME280;30873;53.908;27.576;2023-04-06T00:25:53;1018.9;;;7.6;100
45113;BME280;30873;53.908;27.576;2023-04-06T00:31:41;1018.9;;;7.6;100
45113;BME280;30873;53.908;27.576;2023-04-06T00:35:53;1018.9;;;7.6;100
45113;BME280;30873;53.908;27.576;2023-04-06T00:41:40;1018.9;;;7.7;100
45113;BME280;30873;53.908;27.576;2023-04-06T00:46:27;1018.9;;;7.7;100
45113;BME280;30873;53.908;27.576;2023-04-06T00:50:53;1018.9;;;7.7;100
45113;BME280;30873;53.908;27.576;2023-04-06T00:56:41;1018.8;;;7.7;100
45113;BME280;30873;53.908;27.576;2023-04-06T01:01:23;1018.7;;;7.6;100
45113;BME280;30873;53.908;27.576;2023-04-06T01:06:41;1018.7;;;7.6;100
45113;BME280;30873;53.908;27.576;2023-04-06T01:11:27;1018.7;;;7.7;100
45113;BME280;30873;53.908;27.576;2023-04-06T01:15:53;1018.6;;;7.7;100
45113;BME280;30873;53.908;27.576;2023-04-06T01:21:29;1018.6;;;7.7;100
45113;BME280;30873;53.908;27.576;2023-04-06T01:26:23;1018.6;;;7.8;100
45113;BME280;30873;53.908;27.576;2023-04-06T01:31:41;1018.6;;;7.9;100
45113;BME280;30873;53.908;27.576;2023-04-06T01:36:27;1018.5;;;8;100
45113;BME280;30873;53.908;27.576;2023-04-06T01:40:53;1018.5;;;8;100
45113;BME280;30873;53.908;27.576;2023-04-06T01:46:41;1018.6;;;7.9;100
45113;BME280;30873;53.908;27.576;2023-04-06T01:51:11;1018.6;;;8;100
45113;BME280;30873;53.908;27.576;2023-04-06T01:56:41;1018.6;;;8.1;100
45113;BME280;30873;53.908;27.576;2023-04-06T02:00:53;1018.6;;;8.1;100
45113;BME280;30873;53.908;27.576;2023-04-06T02:06:11;1018.5;;;8.1;100
45113;BME280;30873;53.908;27.576;2023-04-06T02:11:41;1018.5;;;8.1;100
45113;BME280;30873;53.908;27.576;2023-04-06T02:16:11;1018.5;;;8.1;100
45113;BME280;30873;53.908;27.576;2023-04-06T02:21:41;1018.5;;;8.1;100
45113;BME280;30873;53.908;27.576;2023-04-06T02:26:27;1018.5;;;8.2;100
45113;BME280;30873;53.908;27.576;2023-04-06T02:31:03;1018.5;;;8.2;100
45113;BME280;30873;53.908;27.576;2023-04-06T02:36:41;1018.5;;;8.1;100
45113;BME280;30873;53.908;27.576;2023-04-06T02:41:11;1018.6;;;8.2;100
45113;BME280;30873;53.908;27.576;2023-04-06T02:46:41;1018.5;;;8.4;100
45113;BME280;30873;53.908;27.576;2023-04-06T02:51:27;1018.5;;;8.4;100
45113;BME280;30873;53.908;27.576;2023-04-06T02:55:59;1018.5;;;8.3;100
45113;BME280;30873;53.908;27.576;2023-04-06T03:01:41;1018.5;;;8.3;100
45113;BME280;30873;53.908;27.576;2023-04-06T03:06:11;1018.5;;;8.3;100
45113;BME280;30873;53.908;27.576;2023-04-06T03:11:41;1018.5;;;8.3;100
45113;BME280;30873;53.908;27.576;2023-04-06T03:16:27;1018.5;;;8.5;100
45113;BME280;30873;53.908;27.576;2023-04-06T03:21:05;1018.6;;;8.6;100
45113;BME280;30873;53.908;27.576;2023-04-06T03:26:41;1018.6;;;8.5;100
45113;BME280;30873;53.908;27.576;2023-04-06T03:31:23;1018.6;;;8.5;100
45113;BME280;30873;53.908;27.576;2023-04-06T03:36:41;1018.6;;;8.5;100
45113;BME280;30873;53.908;27.576;2023-04-06T03:41:27;1018.6;;;8.4;100
45113;BME280;30873;53.908;27.576;2023-04-06T03:46:27;1018.5;;;8.5;100
45113;BME280;30873;53.908;27.576;2023-04-06T03:51:41;1018.6;;;8.5;100
45113;BME280;30873;53.908;27.576;2023-04-06T03:56:11;1018.6;;;8.7;100
45113;BME280;30873;53.908;27.576;2023-04-06T04:01:39;1018.7;;;8.8;100
45113;BME280;30873;53.908;27.576;2023-04-06T04:06:27;1018.7;;;8.9;100
45113;BME280;30873;53.908;27.576;2023-04-06T04:10:53;1018.7;;;8.9;100
45113;BME280;30873;53.908;27.576;2023-04-06T04:16:41;1018.6;;;8.8;100
45113;BME280;30873;53.908;27.576;2023-04-06T04:21:23;1018.6;;;8.9;100
45113;BME280;30873;53.908;27.576;2023-04-06T04:26:41;1018.7;;;9;100
45113;BME280;30873;53.908;27.576;2023-04-06T04:31:27;1018.6;;;9.1;100
45113;BME280;30873;53.908;27.576;2023-04-06T04:36:09;1018.6;;;9;100
45113;BME280;30873;53.908;27.576;2023-04-06T04:41:27;1018.6;;;9.1;100
45113;BME280;30873;53.908;27.576;2023-04-06T04:46:05;1018.6;;;9.3;100
45113;BME280;30873;53.908;27.576;2023-04-06T04:51:39;1018.6;;;9.3;100
45113;BME280;30873;53.908;27.576;2023-04-06T04:56:27;1018.5;;;9.4;100
45113;BME280;30873;53.908;27.576;2023-04-06T05:00:59;1018.6;;;9.7;100
45113;BME280;30873;53.908;27.576;2023-04-06T05:06:27;1018.6;;;9.9;100
45113;BME280;30873;53.908;27.576;2023-04-06T05:11:21;1018.6;;;10.2;100
45113;BME280;30873;53.908;27.576;2023-04-06T05:16:41;1018.6;;;10.5;100
45113;BME280;30873;53.908;27.576;2023-04-06T05:21:05;1018.6;;;10.5;100
45113;BME280;30873;53.908;27.576;2023-04-06T05:25:59;1018.5;;;10.4;100
45113;BME280;30873;53.908;27.576;2023-04-06T05:31:15;1018.5;;;10.4;100
45113;BME280;30873;53.908;27.576;2023-04-06T05:36:03;1018.5;;;10.7;100
45113;BME280;30873;53.908;27.576;2023-04-06T05:41:41;1018.5;;;10.9;100
45113;BME280;30873;53.908;27.576;2023-04-06T05:46:27;1018.5;;;10.9;100
45113;BME280;30873;53.908;27.576;2023-04-06T05:51:25;1018.5;;;11;100
45113;BME280;30873;53.908;27.576;2023-04-06T05:56:27;1018.5;;;11.1;100
45113;BME280;30873;53.908;27.576;2023-04-06T06:01:05;1018.5;;;10.9;100
45113;BME280;30873;53.908;27.576;2023-04-06T06:06:39;1018.6;;;10.9;100
45113;BME280;30873;53.908;27.576;2023-04-06T06:11:27;1018.5;;;11.2;100
45113;BME280;30873;53.908;27.576;2023-04-06T06:15:53;1018.4;;;11.4;100
45113;BME280;30873;53.908;27.576;2023-04-06T06:21:27;1018.4;;;11.8;100
45113;BME280;30873;53.908;27.576;2023-04-06T06:25:53;1018.5;;;12.1;100
45113;BME280;30873;53.908;27.576;2023-04-06T06:31:39;1018.4;;;12.2;100
45113;BME280;30873;53.908;27.576;2023-04-06T06:36:28;1018.4;;;12.3;100
45113;BME280;30873;53.908;27.576;2023-04-06T06:41:23;1018.5;;;12.7;100
45113;BME280;30873;53.908;27.576;2023-04-06T06:46:27;1018.4;;;12.7;100
45113;BME280;30873;53.908;27.576;2023-04-06T06:51:11;1018.4;;;12.9;100
45113;BME280;30873;53.908;27.576;2023-04-06T06:56:39;1018.4;;;12.8;100
45113;BME280;30873;53.908;27.576;2023-04-06T07:01:27;1018.5;;;12.9;100
45113;BME280;30873;53.908;27.576;2023-04-06T07:05:59;1018.5;;;13.1;100
45113;BME280;30873;53.908;27.576;2023-04-06T07:11:15;1018.5;;;13.4;100
45113;BME280;30873;53.908;27.576;2023-04-06T07:16:11;1018.5;;;13.8;100
45113;BME280;30873;53.908;27.576;2023-04-06T07:21:39;1018.5;;;14.1;100
45113;BME280;30873;53.908;27.576;2023-04-06T07:26:27;1018.5;;;14.2;100
45113;BME280;30873;53.908;27.576;2023-04-06T07:30:59;1018.5;;;14.5;100
45113;BME280;30873;53.908;27.576;2023-04-06T07:36:27;1018.6;;;14.8;100
45113;BME280;30873;53.908;27.576;2023-04-06T07:40:53;1018.6;;;15;100
45113;BME280;30873;53.908;27.576;2023-04-06T07:46:27;1018.7;;;15;100
45113;BME280;30873;53.908;27.576;2023-04-06T07:51:27;1018.7;;;14.6;100
45113;BME280;30873;53.908;27.576;2023-04-06T07:56:09;1018.7;;;14.5;100
45113;BME280;30873;53.908;27.576;2023-04-06T08:01:27;1018.6;;;14.6;100
45113;BME280;30873;53.908;27.576;2023-04-06T08:06:40;1018.5;;;15.3;98.9
45113;BME280;30873;53.908;27.576;2023-04-06T08:11:39;1018.5;;;15.7;95.1
45113;BME280;30873;53.908;27.576;2023-04-06T08:16:25;1018.6;;;15.6;93.8
45113;BME280;30873;53.908;27.576;2023-04-06T08:20:54;1018.6;;;15.5;94.4
45113;BME280;30873;53.908;27.576;2023-04-06T08:26:37;1018.6;;;15.4;95.4
45113;BME280;30873;53.908;27.576;2023-04-06T08:31:11;1018.7;;;15;97.4
45113;BME280;30873;53.908;27.576;2023-04-06T08:36:37;1018.7;;;15.5;97.1
45113;BME280;30873;53.908;27.576;2023-04-06T08:41:13;1018.5;;;16.2;91.5
45113;BME280;30873;53.908;27.576;2023-04-06T08:46:04;1018.4;;;16.6;88.9
45113;BME280;30873;53.908;27.576;2023-04-06T08:50:59;1018.4;;;16.6;87.8
45113;BME280;30873;53.908;27.576;2023-04-06T08:55:53;1018.3;;;16.5;88.4
45113;BME280;30873;53.908;27.576;2023-04-06T09:01:39;1018.3;;;17.1;87.3
45113;BME280;30873;53.908;27.576;2023-04-06T09:06:11;1018.2;;;17.5;85.2
45113;BME280;30873;53.908;27.576;2023-04-06T09:11:10;1018.2;;;17.7;83.9
45113;BME280;30873;53.908;27.576;2023-04-06T09:16:23;1018.2;;;17.7;84.2
45113;BME280;30873;53.908;27.576;2023-04-06T09:20:56;1018.2;;;18;83
45113;BME280;30873;53.908;27.576;2023-04-06T09:26:45;1018.2;;;18;83
45113;BME280;30873;53.908;27.576;2023-04-06T09:35:53;1018;;;20.7;76.5
45113;BME280;30873;53.908;27.576;2023-04-06T09:46:11;1018;;;20.9;74.9
45113;BME280;30873;53.908;27.576;2023-04-06T09:51:28;1018;;;20.9;74.9
45113;BME280;30873;53.908;27.576;2023-04-06T10:06:27;1017.8;;;24.6;47.9
45113;BME280;30873;53.908;27.576;2023-04-06T10:10:54;1017.8;;;25.5;45.6
45113;BME280;30873;53.908;27.576;2023-04-06T10:16:37;1017.7;;;26.3;43.1
45113;BME280;30873;53.908;27.576;2023-04-06T10:21:00;1017.7;;;26.2;42.3
45113;BME280;30873;53.908;27.576;2023-04-06T10:26:02;1017.6;;;26.9;41.2
45113;BME280;30873;53.908;27.576;2023-04-06T10:30:58;1017.6;;;26.8;40.7
45113;BME280;30873;53.908;27.576;2023-04-06T10:36:12;1017.5;;;27.2;40.3
45113;BME280;30873;53.908;27.576;2023-04-06T10:41:24;1017.4;;;28.3;38.6
45113;BME280;30873;53.908;27.576;2023-04-06T10:46:11;1017.4;;;28.8;37.2
45113;BME280;30873;53.908;27.576;2023-04-06T10:51:24;1017.4;;;29;36.5
45113;BME280;30873;53.908;27.576;2023-04-06T10:56:25;1017.3;;;29.9;35.2
45113;BME280;30873;53.908;27.576;2023-04-06T11:00:59;1017.3;;;30.5;33.9
45113;BME280;30873;53.908;27.576;2023-04-06T11:06:35;1017.3;;;30.8;33.4
45113;BME280;30873;53.908;27.576;2023-04-06T11:11:22;1017.2;;;30.9;32.9
45113;BME280;30873;53.908;27.576;2023-04-06T11:15:53;1017.1;;;30.9;32.3
45113;BME280;30873;53.908;27.576;2023-04-06T11:21:34;1017.1;;;30.7;32.3
45113;BME280;30873;53.908;27.576;2023-04-06T11:26:09;1017;;;31.1;31.8
45113;BME280;30873;53.908;27.576;2023-04-06T11:31:39;1017;;;32;30.5
45113;BME280;30873;53.908;27.576;2023-04-06T11:36:11;1016.9;;;31.5;30.5
45113;BME280;30873;53.908;27.576;2023-04-06T11:40:54;1016.9;;;31.3;30.5
45113;BME280;30873;53.908;27.576;2023-04-06T11:46:17;1016.9;;;32.1;29.8
45113;BME280;30873;53.908;27.576;2023-04-06T11:51:12;1016.9;;;32.6;29.1
45113;BME280;30873;53.908;27.576;2023-04-06T11:56:39;1016.9;;;33.6;28.3
45113;BME280;30873;53.908;27.576;2023-04-06T12:01:11;1016.9;;;33.5;28.1
45113;BME280;30873;53.908;27.576;2023-04-06T12:06:04;1016.9;;;33.1;28.1
45113;BME280;30873;53.908;27.576;2023-04-06T12:11:25;1016.8;;;33.8;27.5
45113;BME280;30873;53.908;27.576;2023-04-06T12:16:21;1016.8;;;34.7;26.3
45113;BME280;30873;53.908;27.576;2023-04-06T12:21:37;1016.8;;;34.7;26
45113;BME280;30873;53.908;27.576;2023-04-06T12:26:11;1016.8;;;34.7;26
45113;BME280;30873;53.908;27.576;2023-04-06T12:30:54;1016.8;;;34.7;25.7
45113;BME280;30873;53.908;27.576;2023-04-06T12:36:25;1016.8;;;34.6;25.9
45113;BME280;30873;53.908;27.576;2023-04-06T12:41:12;1016.8;;;34.3;26.1
45113;BME280;30873;53.908;27.576;2023-04-06T12:46:33;1016.8;;;33.4;26.8
45113;BME280;30873;53.908;27.576;2023-04-06T12:51:12;1016.8;;;33.4;26.8
45113;BME280;30873;53.908;27.576;2023-04-06T12:56:10;1016.7;;;32.6;27.4
45113;BME280;30873;53.908;27.576;2023-04-06T13:01:25;1016.7;;;32.3;27.7
45113;BME280;30873;53.908;27.576;2023-04-06T13:06:11;1016.7;;;32.9;27.3
45113;BME280;30873;53.908;27.576;2023-04-06T13:11:37;1016.6;;;33.4;26.8
45113;BME280;30873;53.908;27.576;2023-04-06T13:16:11;1016.6;;;33.8;26.5
45113;BME280;30873;53.908;27.576;2023-04-06T13:20:54;1016.6;;;33.2;26.7
45113;BME280;30873;53.908;27.576;2023-04-06T13:26:25;1016.6;;;32.3;27.8
45113;BME280;30873;53.908;27.576;2023-04-06T13:30:54;1016.6;;;32.2;27.6
45113;BME280;30873;53.908;27.576;2023-04-06T13:36:37;1016.6;;;32.6;27.3
45113;BME280;30873;53.908;27.576;2023-04-06T13:41:17;1016.6;;;31.9;27.5
45113;BME280;30873;53.908;27.576;2023-04-06T13:45:54;1016.6;;;32.7;27
45113;BME280;30873;53.908;27.576;2023-04-06T13:51:14;1016.5;;;32.2;27.1
45113;BME280;30873;53.908;27.576;2023-04-06T13:56:14;1016.5;;;31.7;27.6
45113;BME280;30873;53.908;27.576;2023-04-06T14:01:36;1016.5;;;29.8;29.6
45113;BME280;30873;53.908;27.576;2023-04-06T14:06:36;1016.6;;;28.4;31.5
45113;BME280;30873;53.908;27.576;2023-04-06T14:10:53;1016.6;;;27.9;32.4
45113;BME280;30873;53.908;27.576;2023-04-06T14:16:25;1016.7;;;26.3;34.7
45113;BME280;30873;53.908;27.576;2023-04-06T14:21:06;1016.7;;;26.8;34.6
45113;BME280;30873;53.908;27.576;2023-04-06T14:26:38;1016.7;;;27.1;34.3
45113;BME280;30873;53.908;27.576;2023-04-06T14:31:09;1016.6;;;27.2;34.3
45113;BME280;30873;53.908;27.576;2023-04-06T14:36:02;1016.7;;;26.8;34.9
45113;BME280;30873;53.908;27.576;2023-04-06T14:41:27;1016.7;;;26.4;35.5
45113;BME280;30873;53.908;27.576;2023-04-06T14:46:14;1016.7;;;25.8;36.5
45113;BME280;30873;53.908;27.576;2023-04-06T14:51:40;1016.7;;;24.7;38.5
45113;BME280;30873;53.908;27.576;2023-04-06T14:56:26;1016.7;;;23.9;40.5
45113;BME280;30873;53.908;27.576;2023-04-06T15:01:06;1016.7;;;23.2;42.3
45113;BME280;30873;53.908;27.576;2023-04-06T15:06:27;1016.7;;;22.8;43.8
45113;BME280;30873;53.908;27.576;2023-04-06T15:11:06;1016.8;;;22.5;45.1
45113;BME280;30873;53.908;27.576;2023-04-06T15:16:40;1016.8;;;22.2;46.1
45113;BME280;30873;53.908;27.576;2023-04-06T15:20:54;1016.9;;;22.1;46.7
45113;BME280;30873;53.908;27.576;2023-04-06T15:25:54;1016.9;;;22;47.1
45113;BME280;30873;53.908;27.576;2023-04-06T15:31:26;1016.9;;;21.5;48.6
45113;BME280;30873;53.908;27.576;2023-04-06T15:36:02;1016.9;;;21.2;50.2
45113;BME280;30873;53.908;27.576;2023-04-06T15:41:38;1016.9;;;20.8;52.3
45113;BME280;30873;53.908;27.576;2023-04-06T15:46:14;1016.9;;;20.8;53.2
45113;BME280;30873;53.908;27.576;2023-04-06T15:51:06;1017;;;20.6;53.8
45113;BME280;30873;53.908;27.576;2023-04-06T15:56:28;1017;;;20.5;54.5
45113;BME280;30873;53.908;27.576;2023-04-06T16:01:14;1017;;;20.4;55
45113;BME280;30873;53.908;27.576;2023-04-06T16:06:42;1017;;;20.3;55.6
45113;BME280;30873;53.908;27.576;2023-04-06T16:11:06;1017.1;;;20.1;56.8
45113;BME280;30873;53.908;27.576;2023-04-06T16:16:02;1017.1;;;19.8;58.6
45113;BME280;30873;53.908;27.576;2023-04-06T16:21:16;1017.1;;;19.5;60.9
45113;BME280;30873;53.908;27.576;2023-04-06T16:26:14;1017.1;;;19.3;62.8
45113;BME280;30873;53.908;27.576;2023-04-06T16:31:28;1017.2;;;19.1;65
45113;BME280;30873;53.908;27.576;2023-04-06T16:36:14;1017.2;;;18.8;66.7
45113;BME280;30873;53.908;27.576;2023-04-06T16:40:58;1017.3;;;18.6;68.3
45113;BME280;30873;53.908;27.576;2023-04-06T16:46:27;1017.3;;;18.4;70
45113;BME280;30873;53.908;27.576;2023-04-06T16:51:14;1017.4;;;18.2;72.3
45113;BME280;30873;53.908;27.576;2023-04-06T16:56:40;1017.4;;;18;74.3
45113;BME280;30873;53.908;27.576;2023-04-06T17:01:06;1017.5;;;17.9;75.9
45113;BME280;30873;53.908;27.576;2023-04-06T17:06:14;1017.5;;;17.7;77.3
45113;BME280;30873;53.908;27.576;2023-04-06T17:11:28;1017.5;;;17.6;77.6
45113;BME280;30873;53.908;27.576;2023-04-06T17:16:14;1017.6;;;17.6;78.2
45113;BME280;30873;53.908;27.576;2023-04-06T17:21:40;1017.6;;;17.6;78.6
45113;BME280;30873;53.908;27.576;2023-04-06T17:26:14;1017.7;;;17.5;78.7
45113;BME280;30873;53.908;27.576;2023-04-06T17:30:54;1017.7;;;17.4;79.4
45113;BME280;30873;53.908;27.576;2023-04-06T17:36:28;1017.7;;;17.3;80.6
45113;BME280;30873;53.908;27.576;2023-04-06T17:41:14;1017.7;;;17.2;81.3
45113;BME280;30873;53.908;27.576;2023-04-06T17:46:42;1017.8;;;16.9;83
45113;BME280;30873;53.908;27.576;2023-04-06T17:50:54;1017.8;;;16.9;83.4
45113;BME280;30873;53.908;27.576;2023-04-06T17:55:54;1017.8;;;16.8;83.7
45113;BME280;30873;53.908;27.576;2023-04-06T18:01:28;1017.8;;;16.8;83.6
45113;BME280;30873;53.908;27.576;2023-04-06T18:06:14;1017.9;;;16.8;83.4
45113;BME280;30873;53.908;27.576;2023-04-06T18:11:42;1017.9;;;16.8;83.2
45113;BME280;30873;53.908;27.576;2023-04-06T18:16:26;1017.8;;;16.8;82.3
45113;BME280;30873;53.908;27.576;2023-04-06T18:21:16;1017.8;;;16.9;81
45113;BME280;30873;53.908;27.576;2023-04-06T18:26:30;1017.8;;;16.9;79.4
45113;BME280;30873;53.908;27.576;2023-04-06T18:31:16;1017.8;;;16.9;78.7
45113;BME280;30873;53.908;27.576;2023-04-06T18:36:44;1017.8;;;16.9;77.7
45113;BME280;30873;53.908;27.576;2023-04-06T18:41:16;1017.9;;;16.7;77.6
45113;BME280;30873;53.908;27.576;2023-04-06T18:46:30;1017.9;;;16.7;77.1
45113;BME280;30873;53.908;27.576;2023-04-06T18:51:30;1017.9;;;16.6;76.5
45113;BME280;30873;53.908;27.576;2023-04-06T18:56:11;1017.9;;;16.5;76
45113;BME280;30873;53.908;27.576;2023-04-06T19:01:44;1017.9;;;16.4;75.3
45113;BME280;30873;53.908;27.576;2023-04-06T19:06:16;1017.9;;;16.4;74.5
45113;BME280;30873;53.908;27.576;2023-04-06T19:11:14;1018;;;16.4;73.4
45113;BME280;30873;53.908;27.576;2023-04-06T19:16:30;1017.9;;;16.4;72.5
45113;BME280;30873;53.908;27.576;2023-04-06T19:21:16;1017.9;;;16.4;72.1
45113;BME280;30873;53.908;27.576;2023-04-06T19:26:42;1018;;;16.3;71.9
45113;BME280;30873;53.908;27.576;2023-04-06T19:31:16;1018;;;16.3;72.4
45113;BME280;30873;53.908;27.576;2023-04-06T19:36:08;1018;;;16.3;72.6
45113;BME280;30873;53.908;27.576;2023-04-06T19:41:42;1018;;;16.2;72.5
45113;BME280;30873;53.908;27.576;2023-04-06T19:46:16;1018;;;16.1;72.8
45113;BME280;30873;53.908;27.576;2023-04-06T19:51:40;1018;;;16;72.9
45113;BME280;30873;53.908;27.576;2023-04-06T19:56:16;1018;;;15.9;73.6
45113;BME280;30873;53.908;27.576;2023-04-06T20:01:04;1018;;;15.8;74.4
45113;BME280;30873;53.908;27.576;2023-04-06T20:06:28;1018;;;15.8;74.6
45113;BME280;30873;53.908;27.576;2023-04-06T20:11:00;1018;;;15.8;74.8
45113;BME280;30873;53.908;27.576;2023-04-06T20:16:44;1017.9;;;15.7;75.3
45113;BME280;30873;53.908;27.576;2023-04-06T20:21:16;1018;;;15.7;76
45113;BME280;30873;53.908;27.576;2023-04-06T20:25:54;1018;;;15.6;76.2
45113;BME280;30873;53.908;27.576;2023-04-06T20:31:30;1018;;;15.5;76.4
45113;BME280;30873;53.908;27.576;2023-04-06T20:36:16;1018;;;15.4;77
45113;BME280;30873;53.908;27.576;2023-04-06T20:41:04;1018;;;15.4;76.8
45113;BME280;30873;53.908;27.576;2023-04-06T20:46:16;1018;;;15.3;77.1
45113;BME280;30873;53.908;27.576;2023-04-06T20:51:06;1018;;;15.2;77.7
45113;BME280;30873;53.908;27.576;2023-04-06T20:56:44;1018.1;;;15.1;77.8
45113;BME280;30873;53.908;27.576;2023-04-06T21:00:54;1018.1;;;15;78.5
45113;BME280;30873;53.908;27.576;2023-04-06T21:06:30;1018.1;;;14.9;79.5
45113;BME280;30873;53.908;27.576;2023-04-06T21:11:16;1018.1;;;14.8;80
45113;BME280;30873;53.908;27.576;2023-04-06T21:16:04;1018.1;;;14.7;80.9
45113;BME280;30873;53.908;27.576;2023-04-06T21:21:42;1018.1;;;14.6;81.5
45113;BME280;30873;53.908;27.576;2023-04-06T21:25:54;1018.1;;;14.6;82.3
45113;BME280;30873;53.908;27.576;2023-04-06T21:31:30;1018.1;;;14.6;82.7
45113;BME280;30873;53.908;27.576;2023-04-06T21:36:06;1018.1;;;14.5;83
45113;BME280;30873;53.908;27.576;2023-04-06T21:41:04;1018;;;14.3;84.4
45113;BME280;30873;53.908;27.576;2023-04-06T21:46:42;1018;;;14.3;85
45113;BME280;30873;53.908;27.576;2023-04-06T21:51:04;1018;;;14.2;84.9
45113;BME280;30873;53.908;27.576;2023-04-06T21:56:28;1018;;;14.3;84.7
45113;BME280;30873;53.908;27.576;2023-04-06T22:01:30;1018;;;14.2;85.1
45113;BME280;30873;53.908;27.576;2023-04-06T22:05:54;1018;;;14;85.7
45113;BME280;30873;53.908;27.576;2023-04-06T22:11:44;1018;;;13.9;86.8
45113;BME280;30873;53.908;27.576;2023-04-06T22:16:16;1018;;;13.8;87.2
45113;BME280;30873;53.908;27.576;2023-04-06T22:21:30;1017.9;;;13.8;87.7
45113;BME280;30873;53.908;27.576;2023-04-06T22:26:16;1017.9;;;13.7;88
45113;BME280;30873;53.908;27.576;2023-04-06T22:31:04;1017.9;;;13.6;88.7
45113;BME280;30873;53.908;27.576;2023-04-06T22:36:42;1017.9;;;13.6;88.6
45113;BME280;30873;53.908;27.576;2023-04-06T22:40:54;1017.9;;;13.6;88.5
45113;BME280;30873;53.908;27.576;2023-04-06T22:46:30;1017.9;;;13.6;88.3
45113;BME280;30873;53.908;27.576;2023-04-06T22:51:16;1017.9;;;13.6;88.2
45113;BME280;30873;53.908;27.576;2023-04-06T22:56:28;1017.9;;;13.5;88.7
45113;BME280;30873;53.908;27.576;2023-04-06T23:01:44;1017.9;;;13.4;88.9
45113;BME280;30873;53.908;27.576;2023-04-06T23:05:54;1017.9;;;13.4;89.3
45113;BME280;30873;53.908;27.576;2023-04-06T23:11:30;1017.9;;;13.3;89.7
45113;BME280;30873;53.908;27.576;2023-04-06T23:15:54;1017.9;;;13.3;89.5
45113;BME280;30873;53.908;27.576;2023-04-06T23:20:54;1017.8;;;13.3;89.6
45113;BME280;30873;53.908;27.576;2023-04-06T23:26:44;1017.8;;;13.3;90
45113;BME280;30873;53.908;27.576;2023-04-06T23:30:54;1017.8;;;13.2;90.3
45113;BME280;30873;53.908;27.576;2023-04-06T23:36:28;1017.7;;;13;91.4
45113;BME280;30873;53.908;27.576;2023-04-06T23:41:04;1017.7;;;12.9;92.2
45113;BME280;30873;53.908;27.576;2023-04-06T23:45:54;1017.7;;;12.8;93.1
45113;BME280;30873;53.908;27.576;2023-04-06T23:51:44;1017.7;;;12.8;92.9
45113;BME280;30873;53.908;27.576;2023-04-06T23:55:54;1017.7;;;12.9;93
